Time;durP1;ratioP1;P1;durP2;ratioP2;P2;SDS_P1;SDS_P2;PMS_P1;PMS_P2;Temp;Humidity;BMP_temperature;BMP_pressure;BME280_temperature;BME280_humidity;BME280_pressure;Samples;Min_cycle;Max_cycle;Signal;HPM_P1;HPM_P2
2022/01/06 00:02:25;;;;;;;12.37;5.90;;;10.30;99.90;;;10.80;55.78;100978.81;4950162;28;97880;-47
2022/01/06 00:04:51;;;;;;;12.57;6.10;;;10.40;99.90;;;10.76;57.28;100979.81;4939777;28;98948;-49
2022/01/06 00:07:17;;;;;;;17.47;7.07;;;10.40;99.90;;;10.80;55.18;100985.88;4946406;28;100168;-48
2022/01/06 00:09:43;;;;;;;11.50;6.93;;;10.40;99.90;;;10.69;56.24;100986.19;4950726;28;97505;-51
2022/01/06 00:12:13;;;;;;;16.40;6.37;;;10.20;99.90;;;10.78;56.27;100983.28;4948904;28;98978;-45
2022/01/06 00:15:05;;;;;;;13.60;6.43;;;10.30;99.90;;;10.81;56.60;100987.59;4951836;28;98685;-50
2022/01/06 00:17:52;;;;;;;15.07;6.57;;;10.40;99.90;;;10.84;55.12;100985.72;4950875;28;101070;-50
2022/01/06 00:25:29;;;;;;;16.30;6.40;;;10.40;99.90;;;10.96;56.62;100987.09;4951079;28;99745;-46
2022/01/06 00:27:55;;;;;;;11.60;6.40;;;10.40;99.90;;;10.97;54.76;101002.88;4949731;28;98205;-47
2022/01/06 00:30:20;;;;;;;14.80;6.97;;;10.50;99.90;;;11.07;56.83;101005.25;4945493;28;97001;-50
2022/01/06 00:32:46;;;;;;;15.60;6.77;;;10.50;99.90;;;11.06;54.29;101003.53;4952010;28;98141;-47
2022/01/06 00:35:13;;;;;;;11.27;6.20;;;10.50;99.90;;;10.87;54.88;101004.13;4943592;28;98992;-48
2022/01/06 00:37:39;;;;;;;14.70;5.87;;;10.40;99.90;;;10.90;55.88;101003.16;4949765;28;99347;-46
2022/01/06 00:40:06;;;;;;;14.30;6.13;;;10.40;99.90;;;11.00;56.47;101009.88;4942506;28;98933;-47
2022/01/06 00:42:31;;;;;;;14.10;5.77;;;10.40;99.90;;;10.94;55.63;101020.59;4950342;28;97503;-49
2022/01/06 00:44:57;;;;;;;18.80;7.23;;;10.40;99.90;;;10.58;54.92;101009.41;4946823;28;98474;-51
2022/01/06 00:47:23;;;;;;;14.17;5.97;;;10.10;99.90;;;10.61;57.04;101012.81;4945500;28;97276;-45
2022/01/06 00:49:49;;;;;;;17.13;6.67;;;10.10;99.90;;;10.57;54.81;101026.16;4951157;28;98865;-47
2022/01/06 00:52:15;;;;;;;15.90;6.23;;;10.20;99.90;;;10.67;56.73;101023.19;4948727;28;97687;-47
2022/01/06 00:54:41;;;;;;;13.57;5.47;;;10.20;99.90;;;10.60;55.10;101026.06;4958871;28;98613;-50
2022/01/06 00:57:07;;;;;;;17.17;6.00;;;10.30;99.90;;;10.42;57.17;101017.78;4952246;28;115143;-49
2022/01/06 00:59:33;;;;;;;16.13;6.37;;;10.10;99.90;;;10.17;56.07;101022.00;4955730;28;99271;-47
2022/01/06 01:01:59;;;;;;;14.57;6.00;;;9.90;99.90;;;10.01;55.77;101021.56;4951863;28;97623;-48
2022/01/06 01:04:24;;;;;;;14.13;5.70;;;9.80;99.90;;;9.90;56.95;101033.28;4949438;28;114727;-45
2022/01/06 01:06:50;;;;;;;9.40;5.10;;;9.60;99.90;;;9.84;56.84;101040.47;4954666;28;100339;-45
2022/01/06 01:09:16;;;;;;;15.43;5.00;;;9.50;99.90;;;9.77;57.18;101049.41;4946972;28;97770;-52
2022/01/06 01:11:42;;;;;;;10.80;4.23;;;9.50;99.90;;;9.55;57.30;101043.00;4957184;28;108336;-51
2022/01/06 01:15:09;;;;;;;19.50;5.40;;;9.30;99.90;;;9.54;57.81;101046.50;4947805;28;99442;-51
2022/01/06 01:17:03;;;;;;;15.97;5.03;;;9.30;99.90;;;9.46;58.65;101043.22;4922864;28;97870;-50
2022/01/06 01:19:31;;;;;;;13.73;4.70;;;9.30;99.90;;;9.33;59.33;101039.16;4952682;28;98958;-45
2022/01/06 01:21:57;;;;;;;11.80;4.27;;;9.20;99.90;;;9.53;57.67;101039.50;4953422;28;98139;-51
2022/01/06 01:24:24;;;;;;;14.17;4.30;;;9.30;99.90;;;9.37;57.41;101048.69;4950855;28;103278;-49
2022/01/06 01:26:50;;;;;;;20.23;5.10;;;9.20;99.90;;;9.53;56.67;101050.03;4957828;28;98938;-46
2022/01/06 01:29:18;;;;;;;13.87;4.37;;;9.40;99.90;;;9.73;59.04;101046.91;4945380;28;99773;-47
2022/01/06 01:31:57;;;;;;;11.03;4.57;;;9.40;99.90;;;9.59;57.04;101049.03;4954385;28;97533;-46
2022/01/06 01:34:26;;;;;;;9.30;3.90;;;9.40;99.90;;;9.62;57.23;101044.56;4966510;28;102787;-47
2022/01/06 01:36:57;;;;;;;17.87;4.70;;;9.30;99.90;;;9.75;56.76;101043.34;4955505;28;98158;-50
2022/01/06 01:39:24;;;;;;;14.57;4.10;;;9.40;99.90;;;9.67;56.14;101047.06;4965379;28;97600;-46
2022/01/06 01:41:51;;;;;;;12.17;4.07;;;9.40;99.90;;;9.64;58.23;101045.38;4974123;28;97355;-48
2022/01/06 01:44:20;;;;;;;17.73;4.33;;;9.30;99.90;;;9.67;58.83;101050.56;4976767;28;98571;-46
2022/01/06 01:46:59;;;;;;;16.43;4.10;;;9.30;99.90;;;9.53;57.46;101065.84;4973516;28;98323;-45
2022/01/06 01:51:52;;;;;;;15.17;4.40;;;9.30;99.90;;;9.46;55.91;101065.13;4974176;28;97037;-48
2022/01/06 01:54:18;;;;;;;13.73;3.77;;;9.30;99.90;;;9.49;56.92;101064.19;4973686;28;98363;-46
2022/01/06 01:56:45;;;;;;;17.77;4.43;;;9.20;99.90;;;9.52;56.28;101061.47;4974296;28;98713;-48
2022/01/06 01:59:12;;;;;;;12.33;3.57;;;9.20;99.90;;;9.63;56.78;101071.75;4970732;28;97522;-46
2022/01/06 02:01:38;;;;;;;13.93;4.13;;;9.30;99.90;;;9.64;55.55;101062.94;4975663;28;99701;-45
2022/01/06 02:04:04;;;;;;;10.90;4.47;;;9.30;99.90;;;9.70;57.51;101068.94;4968741;28;98053;-48
2022/01/06 02:06:30;;;;;;;19.23;3.93;;;9.30;99.90;;;9.70;55.15;101074.22;4962314;28;96922;-48
2022/01/06 02:08:56;;;;;;;16.30;4.23;;;9.40;99.90;;;9.73;55.72;101074.13;4977844;28;97233;-48
2022/01/06 02:11:23;;;;;;;11.47;3.63;;;9.40;99.90;;;9.78;56.92;101077.50;4976016;28;97070;-50
2022/01/06 02:13:51;;;;;;;9.57;3.80;;;9.40;99.90;;;9.63;55.96;101082.28;4971816;28;98011;-45
2022/01/06 02:16:24;;;;;;;16.03;3.87;;;9.30;99.90;;;9.52;55.64;101079.91;4972203;28;97305;-45
2022/01/06 02:18:52;;;;;;;16.50;3.87;;;9.30;99.90;;;9.46;58.11;101080.06;4974667;28;97782;-46
2022/01/06 02:21:19;;;;;;;14.70;3.57;;;9.10;99.90;;;9.63;58.39;101083.16;4965385;28;98702;-48
2022/01/06 02:23:45;;;;;;;12.63;3.70;;;9.20;99.90;;;9.69;54.90;101090.91;4978379;28;98593;-47
2022/01/06 02:26:12;;;;;;;12.43;3.70;;;9.50;99.90;;;9.67;55.30;101087.44;4970464;28;98410;-50
2022/01/06 02:28:40;;;;;;;12.20;3.40;;;9.40;99.90;;;9.83;56.93;101080.88;4979916;28;96999;-45
2022/01/06 02:31:06;;;;;;;16.07;3.87;;;9.50;99.90;;;9.88;56.87;101082.53;4967138;28;97281;-47
2022/01/06 02:33:32;;;;;;;15.70;3.73;;;9.50;99.90;;;10.14;58.22;101078.31;4978663;28;97572;-47
2022/01/06 02:35:58;;;;;;;12.37;3.50;;;9.70;99.90;;;10.09;54.58;101088.09;4973244;28;98237;-51
2022/01/06 02:38:24;;;;;;;12.10;3.63;;;9.70;99.90;;;10.12;57.29;101087.13;4974822;28;97155;-48
2022/01/06 02:40:51;;;;;;;15.07;3.80;;;9.70;99.90;;;10.29;57.60;101090.25;4975512;28;96972;-47
2022/01/06 02:43:19;;;;;;;11.33;3.40;;;9.80;99.90;;;10.25;54.64;101088.56;4971275;28;96925;-49
2022/01/06 02:45:46;;;;;;;12.80;3.50;;;9.80;99.90;;;10.39;54.70;101096.09;4975785;28;97576;-46
2022/01/06 02:48:14;;;;;;;13.23;3.33;;;9.90;99.90;;;10.62;56.32;101092.81;4972421;28;96936;-46
2022/01/06 02:50:49;;;;;;;14.77;4.07;;;10.00;99.90;;;10.75;56.37;101096.84;4973042;28;97030;-49
2022/01/06 02:53:17;;;;;;;12.87;3.80;;;10.00;99.90;;;10.67;52.29;101090.91;4970964;28;99630;-47
2022/01/06 02:55:50;;;;;;;11.70;2.97;;;10.10;99.90;;;10.65;54.52;101092.72;4975698;28;99204;-46
2022/01/06 02:58:21;;;;;;;10.07;2.83;;;10.10;99.90;;;10.60;52.84;101095.50;4971355;28;97479;-48
2022/01/06 03:00:47;;;;;;;13.17;3.20;;;10.10;99.90;;;10.73;53.35;101096.03;4977196;28;96750;-47
2022/01/06 03:03:13;;;;;;;13.27;3.30;;;10.20;99.90;;;10.70;53.70;101104.00;4971259;28;97563;-46
2022/01/06 03:05:39;;;;;;;13.37;3.37;;;10.20;99.90;;;10.53;51.80;101108.91;4974756;28;107887;-47
2022/01/06 03:08:05;;;;;;;14.90;2.80;;;10.20;99.90;;;10.52;52.71;101117.72;4969878;28;96896;-46
2022/01/06 03:10:35;;;;;;;16.47;3.50;;;10.10;99.90;;;10.59;56.03;101114.03;4959515;28;97279;-49
2022/01/06 03:13:02;;;;;;;13.90;3.70;;;10.20;99.90;;;10.68;53.87;101114.59;4972589;28;98802;-50
2022/01/06 03:15:28;;;;;;;15.07;2.80;;;10.30;99.90;;;10.43;52.31;101121.50;4971325;28;97210;-48
2022/01/06 03:17:56;;;;;;;16.20;3.80;;;10.20;99.90;;;10.31;52.76;101120.06;4976669;28;96839;-50
2022/01/06 03:20:23;;;;;;;9.80;3.20;;;9.90;99.90;;;10.31;52.49;101135.03;4971157;28;97417;-48
2022/01/06 03:22:51;;;;;;;13.93;3.43;;;9.90;99.90;;;10.24;53.20;101129.03;4979569;28;99499;-48
2022/01/06 03:25:17;;;;;;;10.13;3.40;;;9.90;99.90;;;10.12;53.39;101130.19;4972117;28;96955;-46
2022/01/06 03:27:44;;;;;;;11.40;3.40;;;9.70;99.90;;;10.21;55.50;101128.22;4977454;28;96842;-46
2022/01/06 03:30:20;;;;;;;10.20;2.80;;;9.70;99.90;;;10.11;53.68;101123.19;4971570;28;97089;-46
2022/01/06 03:32:47;;;;;;;13.77;3.00;;;9.70;99.90;;;10.20;52.63;101116.81;4974717;28;98649;-46
2022/01/06 03:35:19;;;;;;;9.83;3.70;;;9.90;99.90;;;10.43;52.89;101129.41;4969987;28;97068;-50
2022/01/06 03:37:45;;;;;;;11.23;2.80;;;10.00;99.90;;;10.57;54.23;101129.03;4977330;28;97234;-46
2022/01/06 03:40:12;;;;;;;12.70;3.40;;;10.00;99.90;;;10.68;54.43;101129.56;4973267;28;96565;-48
2022/01/06 03:42:38;;;;;;;12.70;2.83;;;10.10;99.90;;;10.76;54.86;101132.88;4973570;28;97612;-46
2022/01/06 03:45:09;;;;;;;12.23;3.10;;;10.10;99.90;;;10.94;55.03;101134.09;4988843;28;99309;-46
2022/01/06 03:47:35;;;;;;;11.17;3.47;;;10.20;99.90;;;11.00;55.28;101131.31;4973675;28;96809;-47
2022/01/06 03:50:01;;;;;;;13.33;3.60;;;10.20;99.90;;;11.02;55.52;101135.63;4972551;28;97000;-47
2022/01/06 03:52:27;;;;;;;11.03;3.27;;;10.20;99.90;;;11.30;54.76;101140.06;4962939;28;98576;-50
2022/01/06 03:54:53;;;;;;;10.93;3.47;;;10.50;99.90;;;11.26;51.74;101146.31;4971513;28;99201;-46
2022/01/06 03:57:19;;;;;;;14.70;3.87;;;10.50;99.90;;;11.45;52.87;101144.88;4970382;28;97465;-51
2022/01/06 03:59:45;;;;;;;13.57;3.33;;;10.70;99.90;;;11.44;51.69;101152.84;4974967;28;97365;-46
2022/01/06 04:02:11;;;;;;;15.37;3.70;;;10.60;99.90;;;11.42;51.78;101158.16;4972479;28;97506;-48
2022/01/06 04:04:37;;;;;;;11.10;3.53;;;10.60;99.90;;;11.25;51.36;101153.38;4987339;28;96870;-46
2022/01/06 04:07:04;;;;;;;12.67;3.83;;;10.40;99.90;;;11.56;54.63;101160.34;4970465;28;97511;-46
2022/01/06 04:09:30;;;;;;;11.00;3.27;;;10.70;99.90;;;11.57;51.48;101160.34;4971447;28;96818;-50
2022/01/06 04:11:56;;;;;;;13.10;4.20;;;10.80;99.90;;;11.38;50.67;101169.72;4977420;28;98789;-46
2022/01/06 04:14:22;;;;;;;15.03;4.47;;;10.70;99.90;;;11.31;51.61;101168.19;4968872;28;97466;-48
2022/01/06 04:16:48;;;;;;;10.63;3.73;;;10.50;99.90;;;11.01;52.02;101155.00;4974695;28;99656;-49
2022/01/06 04:19:14;;;;;;;13.53;4.23;;;10.30;99.90;;;10.96;53.51;101167.47;4968975;28;100693;-48
2022/01/06 04:21:40;;;;;;;14.20;4.10;;;10.30;99.90;;;11.00;55.46;101169.13;4973175;28;110715;-45
2022/01/06 04:24:05;;;;;;;13.03;4.77;;;10.40;99.90;;;10.77;51.61;101182.09;4970324;28;100120;-49
2022/01/06 04:26:31;;;;;;;12.73;3.87;;;10.20;99.90;;;10.94;54.57;101178.97;4970389;28;100976;-46
2022/01/06 04:28:57;;;;;;;16.00;4.97;;;10.30;99.90;;;10.88;54.45;101177.38;4979692;28;96818;-46
2022/01/06 04:31:23;;;;;;;14.57;4.67;;;10.20;99.90;;;10.73;51.90;101186.59;4969829;28;102655;-46
2022/01/06 04:33:49;;;;;;;11.97;4.43;;;10.20;99.90;;;10.83;53.69;101186.31;4974428;28;98632;-46
2022/01/06 04:36:14;;;;;;;18.70;5.00;;;10.10;99.90;;;10.99;55.96;101188.50;4969996;28;96873;-49
2022/01/06 04:38:40;;;;;;;14.03;4.40;;;10.20;99.90;;;11.01;54.67;101201.66;4975478;28;105672;-47
2022/01/06 04:41:06;;;;;;;21.57;4.63;;;10.20;99.90;;;10.94;54.97;101205.38;4969107;28;97013;-46
2022/01/06 04:43:32;;;;;;;13.53;4.37;;;10.10;99.90;;;11.07;53.71;101200.59;4971454;28;109190;-46
2022/01/06 04:45:59;;;;;;;17.87;4.83;;;10.30;99.90;;;11.30;54.87;101203.44;4977015;28;96946;-50
2022/01/06 04:48:25;;;;;;;13.07;4.13;;;10.50;99.90;;;11.36;54.59;101208.53;4954029;28;97215;-47
2022/01/06 04:50:51;;;;;;;13.37;4.13;;;10.50;99.90;;;11.50;54.36;101208.97;4974114;28;99538;-49
2022/01/06 04:53:17;;;;;;;15.77;4.30;;;10.70;99.90;;;11.59;54.48;101214.00;4980057;28;113962;-50
2022/01/06 04:55:42;;;;;;;14.30;3.60;;;10.70;99.90;;;11.67;54.10;101219.03;4977199;28;99009;-52
2022/01/06 04:58:08;;;;;;;15.13;4.57;;;10.70;99.90;;;11.80;54.06;101214.25;4971062;28;97270;-48
2022/01/06 05:00:34;;;;;;;12.83;3.73;;;10.90;99.90;;;11.94;53.45;101214.69;4973091;28;98905;-47
2022/01/06 05:03:00;;;;;;;18.40;4.63;;;11.00;99.90;;;12.05;52.23;101215.19;4970464;28;106976;-50
2022/01/06 05:05:26;;;;;;;11.73;4.40;;;11.10;99.90;;;12.09;53.11;101222.09;4974049;28;96742;-48
2022/01/06 05:07:51;;;;;;;13.20;4.00;;;11.10;99.90;;;12.12;52.72;101227.28;4971148;28;97471;-47
2022/01/06 05:10:17;;;;;;;13.73;3.53;;;11.10;99.90;;;12.20;52.83;101229.69;4967232;28;100513;-51
2022/01/06 05:12:45;;;;;;;14.47;3.97;;;11.10;99.90;;;12.25;52.92;101224.25;4975894;28;99483;-46
2022/01/06 05:15:13;;;;;;;9.20;3.00;;;11.20;99.90;;;12.33;52.79;101230.16;4967308;28;97038;-48
2022/01/06 05:17:40;;;;;;;9.37;3.00;;;11.30;99.90;;;12.35;52.79;101233.59;4974632;28;97026;-48
2022/01/06 05:20:07;;;;;;;11.70;3.33;;;11.30;99.90;;;12.34;52.55;101242.47;4964185;28;100597;-47
2022/01/06 05:22:35;;;;;;;11.40;3.40;;;11.20;99.90;;;12.34;52.57;101237.16;4972843;28;96326;-49
2022/01/06 05:25:01;;;;;;;13.40;4.53;;;11.20;99.90;;;12.42;52.50;101240.41;4971049;28;96761;-49
2022/01/06 05:27:27;;;;;;;13.53;4.17;;;11.30;99.90;;;12.44;52.04;101247.41;4972574;28;96952;-48
2022/01/06 05:29:53;;;;;;;11.77;4.27;;;11.40;99.90;;;12.41;50.28;101250.13;4974579;28;111529;-47
2022/01/06 05:32:19;;;;;;;17.10;4.10;;;11.30;99.90;;;12.44;51.85;101249.16;4966109;28;107187;-47
2022/01/06 05:34:44;;;;;;;16.77;4.57;;;11.40;99.90;;;12.44;51.78;101254.44;4970660;28;96973;-51
2022/01/06 05:37:10;;;;;;;13.73;3.83;;;11.30;99.80;;;12.42;52.02;101256.28;4986359;28;98398;-45
2022/01/06 05:39:36;;;;;;;13.40;4.83;;;11.30;99.70;;;12.43;52.22;101258.00;4977595;28;97268;-46
2022/01/06 05:42:02;;;;;;;14.53;4.50;;;11.30;99.90;;;12.43;50.68;101260.66;4971446;28;98276;-49
2022/01/06 05:44:32;;;;;;;11.70;4.20;;;11.30;99.90;;;12.40;52.25;101268.69;4972098;28;96772;-49
2022/01/06 05:46:58;;;;;;;10.23;3.70;;;11.30;99.90;;;12.31;52.18;101269.03;4971636;28;97426;-54
2022/01/06 05:49:24;;;;;;;9.13;3.27;;;11.20;99.90;;;12.24;52.34;101270.13;4970729;28;104628;-46
2022/01/06 05:51:49;;;;;;;12.60;4.43;;;11.10;99.90;;;12.15;51.44;101273.91;4980707;28;103510;-49
2022/01/06 05:54:15;;;;;;;10.67;3.43;;;10.90;99.90;;;12.19;52.88;101276.44;4964352;28;97608;-51
2022/01/06 05:56:41;;;;;;;7.70;3.03;;;11.00;99.90;;;12.29;52.58;101282.28;4993092;28;96904;-47
2022/01/06 05:59:07;;;;;;;11.10;4.40;;;11.20;99.90;;;12.27;52.46;101283.25;4969450;28;98561;-48
2022/01/06 06:01:33;;;;;;;8.47;3.00;;;11.20;99.90;;;12.28;52.17;101292.91;4978269;28;97077;-48
2022/01/06 06:03:58;;;;;;;11.27;3.73;;;11.20;99.80;;;12.20;51.86;101299.31;4972817;28;97175;-54
2022/01/06 06:06:24;;;;;;;14.67;3.57;;;11.00;99.90;;;12.23;52.90;101295.72;4969632;28;97233;-45
2022/01/06 06:08:50;;;;;;;13.57;3.93;;;11.00;99.90;;;12.29;53.03;101299.91;4976370;28;97378;-49
2022/01/06 06:11:16;;;;;;;5.27;1.80;;;11.20;99.90;;;12.37;52.84;101308.50;4971028;28;97069;-46
2022/01/06 06:13:42;;;;;;;5.13;2.03;;;11.30;99.90;;;12.37;52.56;101305.84;4978798;28;97210;-46
2022/01/06 06:16:08;;;;;;;13.60;3.97;;;11.30;99.90;;;12.34;51.88;101311.25;4968653;28;96955;-49
2022/01/06 06:18:34;;;;;;;6.37;2.70;;;11.10;99.70;;;12.31;52.52;101316.63;4980012;28;98919;-46
2022/01/06 06:20:59;;;;;;;9.20;3.27;;;11.00;99.90;;;12.25;52.34;101322.09;4970541;28;97731;-54
2022/01/06 06:23:25;;;;;;;17.20;8.73;;;10.90;99.90;;;12.19;52.80;101318.75;4966304;28;97337;-46
2022/01/06 06:25:51;;;;;;;9.70;4.87;;;10.90;99.90;;;12.20;53.01;101325.78;4974552;28;97195;-48
2022/01/06 06:28:17;;;;;;;19.23;9.50;;;10.90;99.90;;;12.17;53.31;101331.16;4982520;28;100298;-46
2022/01/06 06:30:42;;;;;;;12.67;5.57;;;10.90;99.90;;;12.19;53.44;101333.75;4976469;28;110925;-45
2022/01/06 06:33:08;;;;;;;6.60;3.47;;;10.90;99.90;;;12.17;53.15;101335.59;4963386;28;103521;-48
2022/01/06 06:35:34;;;;;;;11.07;4.40;;;10.90;99.90;;;12.12;53.23;101335.72;4978873;28;104562;-51
2022/01/06 06:38:00;;;;;;;8.87;3.37;;;10.80;99.90;;;12.26;53.57;101339.72;4951674;28;97502;-49
2022/01/06 06:40:26;;;;;;;12.00;4.97;;;11.00;99.90;;;12.26;53.25;101340.56;4977098;28;99201;-48
2022/01/06 06:42:52;;;;;;;5.40;2.80;;;11.00;99.90;;;12.26;53.40;101347.66;4959420;28;98256;-47
2022/01/06 06:45:20;;;;;;;7.87;3.00;;;11.00;99.90;;;12.26;53.26;101337.06;4971555;28;99042;-47
2022/01/06 06:47:46;;;;;;;6.40;3.40;;;10.90;99.90;;;12.22;52.85;101344.25;4970987;28;97884;-48
2022/01/06 06:50:15;;;;;;;10.97;3.40;;;10.90;99.80;;;12.18;53.35;101337.31;4970037;28;99033;-48
2022/01/06 06:52:43;;;;;;;8.43;4.93;;;10.80;99.90;;;12.17;52.94;101347.03;4977644;28;96944;-49
2022/01/06 06:55:10;;;;;;;6.77;3.07;;;10.80;99.90;;;12.14;53.15;101347.09;4966452;28;100466;-50
2022/01/06 06:57:35;;;;;;;8.57;4.40;;;10.70;99.90;;;12.15;53.05;101347.97;4974617;28;97071;-47
2022/01/06 07:00:04;;;;;;;6.90;3.67;;;10.80;99.90;;;12.12;53.27;101348.06;4968023;28;99131;-48
2022/01/06 07:02:31;;;;;;;9.03;3.37;;;10.80;99.90;;;12.09;53.46;101354.34;4974705;28;97157;-46
2022/01/06 07:04:57;;;;;;;7.17;3.67;;;10.70;99.90;;;12.01;52.99;101351.06;4975917;28;97601;-46
2022/01/06 07:07:23;;;;;;;5.60;3.00;;;10.60;99.90;;;11.99;53.84;101366.09;4969747;28;104186;-49
2022/01/06 07:09:50;;;;;;;10.63;3.50;;;10.60;99.90;;;12.03;53.24;101378.34;4977350;28;97267;-47
2022/01/06 07:12:16;;;;;;;9.80;4.23;;;10.70;99.90;;;12.00;53.03;101380.19;4970868;28;97462;-46
2022/01/06 07:14:42;;;;;;;5.77;3.00;;;10.60;99.90;;;12.02;53.48;101384.53;4976653;28;100004;-46
2022/01/06 07:17:08;;;;;;;6.00;3.57;;;10.60;99.90;;;12.02;53.41;101389.81;4969337;28;99865;-50
2022/01/06 07:19:34;;;;;;;7.47;3.63;;;10.60;99.90;;;12.05;53.57;101394.16;4976000;28;97194;-48
2022/01/06 07:22:00;;;;;;;7.47;3.27;;;10.70;99.90;;;12.08;53.43;101388.75;4980262;28;96800;-51
2022/01/06 07:24:26;;;;;;;9.37;3.70;;;10.70;99.90;;;12.06;53.62;101386.16;4975933;28;96827;-50
2022/01/06 07:26:52;;;;;;;10.93;4.43;;;10.80;99.90;;;12.01;53.58;101393.38;4974033;28;98012;-46
2022/01/06 07:29:17;;;;;;;9.20;4.00;;;10.60;99.90;;;12.12;53.82;101400.97;4964474;28;99358;-49
2022/01/06 07:31:43;;;;;;;8.73;3.77;;;10.80;99.90;;;12.14;52.65;101409.72;4968870;28;97239;-51
2022/01/06 07:34:09;;;;;;;8.40;3.43;;;10.80;99.90;;;12.06;53.45;101415.25;4964726;28;97002;-47
2022/01/06 07:36:35;;;;;;;9.43;4.43;;;10.70;99.90;;;12.07;52.29;101419.63;4965237;28;97230;-48
2022/01/06 07:39:02;;;;;;;11.93;5.03;;;10.70;99.90;;;11.96;52.69;101421.72;4966932;28;99729;-53
2022/01/06 07:41:28;;;;;;;11.37;4.60;;;10.60;99.90;;;11.87;52.98;101422.00;4974169;28;97595;-50
2022/01/06 07:43:54;;;;;;;12.20;4.77;;;10.50;99.90;;;11.85;53.25;101429.09;4973886;28;99224;-50
2022/01/06 07:46:19;;;;;;;9.77;4.03;;;10.50;99.90;;;11.80;53.41;101428.34;4964258;28;99526;-47
2022/01/06 07:49:03;;;;;;;13.33;5.60;;;10.40;99.90;;;11.76;52.08;101435.47;4972456;28;102292;-49
2022/01/06 07:51:31;;;;;;;12.40;5.60;;;10.30;99.90;;;11.68;53.58;101436.59;4963435;28;96762;-46
2022/01/06 07:53:59;;;;;;;18.47;7.77;;;10.30;99.90;;;11.60;53.47;101445.63;4975870;28;96911;-46
2022/01/06 07:56:25;;;;;;;12.23;7.43;;;10.20;99.90;;;11.62;54.52;101441.16;4969450;28;101830;-46
2022/01/06 07:58:51;;;;;;;12.70;6.40;;;10.20;99.90;;;11.52;54.49;101452.88;4970812;28;97600;-46
2022/01/06 08:01:17;;;;;;;8.87;3.43;;;10.10;99.90;;;11.56;55.08;101453.66;4984418;28;97947;-47
2022/01/06 08:03:43;;;;;;;14.07;6.67;;;10.10;99.90;;;11.58;53.97;101459.78;4975848;28;97058;-49
2022/01/06 08:06:11;;;;;;;13.53;6.17;;;10.20;99.90;;;11.46;53.36;101458.34;4969004;28;98717;-46
2022/01/06 08:08:37;;;;;;;13.23;6.10;;;10.10;99.90;;;11.39;54.10;101464.66;4974029;28;98250;-48
2022/01/06 08:11:03;;;;;;;16.83;7.87;;;9.90;99.90;;;10.77;48.13;101469.75;4967211;28;97364;-46
2022/01/06 08:13:29;;;;;;;12.47;5.17;;;9.60;99.90;;;11.03;56.49;101464.72;4974031;28;96894;-49
2022/01/06 08:15:55;;;;;;;13.33;6.10;;;9.60;99.90;;;11.00;55.76;101470.06;4972643;28;110896;-47
2022/01/06 08:18:21;;;;;;;10.13;5.47;;;9.60;99.90;;;11.15;56.36;101475.88;4965758;28;96758;-51
2022/01/06 08:20:47;;;;;;;9.83;4.80;;;9.80;99.90;;;11.23;56.24;101471.25;4978436;28;97142;-46
2022/01/06 08:23:13;;;;;;;15.07;6.23;;;10.00;99.90;;;11.19;53.56;101475.75;4970454;28;96829;-49
2022/01/06 08:25:39;;;;;;;14.90;6.10;;;9.90;99.90;;;11.17;55.80;101476.72;4965605;28;96904;-51
2022/01/06 08:28:05;;;;;;;12.97;5.67;;;9.70;99.90;;;11.24;55.95;101480.91;4967434;28;97447;-47
2022/01/06 08:30:32;;;;;;;15.67;6.40;;;9.80;99.90;;;11.20;54.93;101490.69;4976994;28;96807;-48
2022/01/06 08:32:59;;;;;;;14.17;7.07;;;9.90;99.90;;;11.22;55.28;101488.00;4969946;28;96913;-50
2022/01/06 08:35:26;;;;;;;13.03;6.13;;;9.90;99.90;;;11.13;55.80;101485.59;4961785;28;102839;-48
2022/01/06 08:37:51;;;;;;;13.40;4.63;;;9.70;99.90;;;11.31;56.00;101495.72;4969525;28;97526;-49
2022/01/06 08:40:17;;;;;;;9.30;4.50;;;10.00;99.90;;;11.41;55.89;101497.19;4967862;28;97694;-49
2022/01/06 08:42:45;;;;;;;8.70;3.43;;;10.10;99.90;;;11.57;55.33;101502.94;4978103;28;97059;-44
2022/01/06 08:45:12;;;;;;;8.20;4.87;;;10.30;99.90;;;11.68;54.55;101505.31;4978596;28;98242;-47
2022/01/06 08:47:38;;;;;;;11.37;5.30;;;10.50;99.90;;;11.76;54.51;101506.84;4973564;28;96890;-51
2022/01/06 08:50:06;;;;;;;13.40;6.23;;;10.50;99.90;;;11.89;54.09;101499.50;4966318;28;96932;-48
2022/01/06 08:52:34;;;;;;;11.87;5.47;;;10.60;99.90;;;11.97;53.76;101501.91;4967191;28;97295;-50
2022/01/06 08:54:59;;;;;;;5.97;3.23;;;10.70;99.90;;;12.08;53.85;101521.84;4968045;28;97671;-54
2022/01/06 08:57:26;;;;;;;6.90;3.27;;;10.80;99.90;;;12.17;53.70;101520.72;4987813;28;101251;-49
2022/01/06 08:59:52;;;;;;;11.40;5.20;;;11.00;99.90;;;12.29;53.34;101519.50;4971754;28;97444;-49
2022/01/06 09:02:18;;;;;;;11.17;5.20;;;11.10;99.90;;;12.34;53.25;101522.88;4967677;28;97309;-49
2022/01/06 09:04:44;;;;;;;9.97;4.83;;;11.10;99.90;;;12.42;53.09;101515.56;4968863;28;96914;-48
2022/01/06 09:07:10;;;;;;;6.97;3.33;;;11.30;99.90;;;12.47;53.02;101518.97;4966431;28;104054;-48
2022/01/06 09:09:39;;;;;;;5.97;4.00;;;11.30;99.90;;;12.54;52.58;101515.22;4975415;28;96962;-52
2022/01/06 09:12:07;;;;;;;12.30;5.60;;;11.40;99.90;;;12.54;52.59;101520.50;4964565;28;96967;-46
2022/01/06 09:14:33;;;;;;;7.37;3.63;;;11.40;99.90;;;12.61;52.51;101519.44;4972106;28;96867;-52
2022/01/06 09:16:59;;;;;;;6.07;2.70;;;11.50;99.90;;;12.65;52.54;101513.13;4970454;28;97959;-52
2022/01/06 09:19:25;;;;;;;7.80;3.93;;;11.60;99.90;;;12.69;52.40;101514.75;4972922;28;97198;-46
2022/01/06 09:21:51;;;;;;;7.03;4.00;;;11.60;99.90;;;12.73;52.32;101510.22;4976920;28;96986;-49
2022/01/06 09:24:18;;;;;;;10.30;4.30;;;11.60;99.90;;;12.73;52.34;101521.69;4969086;28;98745;-47
2022/01/06 09:26:44;;;;;;;12.77;5.13;;;11.60;99.90;;;12.74;51.77;101522.56;4975817;28;99207;-47
2022/01/06 09:29:13;;;;;;;7.73;4.37;;;11.60;99.90;;;12.73;52.33;101526.09;4969028;28;97425;-48
2022/01/06 09:31:41;;;;;;;8.53;3.83;;;11.50;99.90;;;12.75;52.30;101525.16;4978966;28;97448;-50
2022/01/06 09:34:08;;;;;;;6.67;3.30;;;11.60;99.90;;;12.77;52.38;101527.75;4969753;28;100186;-50
2022/01/06 09:36:36;;;;;;;8.80;4.50;;;11.60;99.90;;;12.82;52.05;101532.00;4973957;28;97225;-50
2022/01/06 09:39:05;;;;;;;15.60;6.83;;;11.70;99.90;;;12.79;51.21;101532.09;4971216;28;97090;-46
2022/01/06 09:41:31;;;;;;;13.60;5.50;;;11.70;99.90;;;12.72;51.85;101530.53;4969137;28;97225;-50
2022/01/06 09:44:01;;;;;;;12.53;5.57;;;11.60;99.90;;;12.68;51.91;101534.19;4978665;28;96991;-50
2022/01/06 09:46:28;;;;;;;13.47;6.30;;;11.50;99.90;;;12.74;52.25;101531.38;4968734;28;101373;-47
2022/01/06 09:48:59;;;;;;;13.27;6.70;;;11.60;99.90;;;12.64;50.89;101532.56;4970346;28;97085;-51
2022/01/06 09:51:27;;;;;;;14.73;7.37;;;11.50;99.90;;;12.40;49.85;101549.16;4985714;28;96931;-50
2022/01/06 09:53:59;;;;;;;11.13;4.80;;;11.30;99.90;;;12.38;52.60;101550.97;4979114;28;96841;-49
2022/01/06 09:56:27;;;;;;;17.43;7.53;;;11.20;99.90;;;12.32;52.82;101552.03;4969634;28;101008;-48
2022/01/06 09:58:56;;;;;;;11.37;5.70;;;11.10;99.90;;;12.32;53.16;101556.47;4977551;28;96753;-48
2022/01/06 10:01:23;;;;;;;14.40;5.60;;;11.10;99.90;;;12.48;53.09;101557.75;4970619;28;97592;-49
2022/01/06 10:03:49;;;;;;;10.17;4.97;;;11.40;99.90;;;12.56;52.80;101557.50;4968751;28;97063;-49
2022/01/06 10:06:28;;;;;;;10.40;4.50;;;11.60;99.90;;;12.62;52.12;101546.75;4967352;28;105483;-46
2022/01/06 10:08:56;;;;;;;13.03;5.90;;;11.60;99.90;;;12.71;52.61;101539.38;4978302;28;97009;-51
2022/01/06 10:11:28;;;;;;;14.33;7.27;;;11.70;99.90;;;12.81;52.32;101540.84;4973258;28;96981;-53
2022/01/06 10:14:10;;;;;;;14.27;6.30;;;11.80;99.90;;;12.91;50.53;101546.72;4977155;28;97937;-50
2022/01/06 10:16:44;;;;;;;18.23;9.50;;;12.00;99.50;;;12.60;50.53;101541.50;4972574;28;103719;-51